Aviation Digital Data Service (ADDS)

Output produced by METARs form (0212 UTC 31 August 2016)
found at http://aviationweather.gov/adds/metars/
 
KLFT 310153Z 00000KT 10SM SCT090 28/23 A2990 RMK AO2 SLP124 T02780228 $